McCarran International, NV

8:01 AM PDT on October 02, 2014 (GMT -0700)
North Las Vegas | Change Station
CLOSE
Current Station
Airport
Location: North Las Vegas,
Elevation: 2205 ft
Nearby Weather Stations

Elev 2205 ft 36.21 °N, 115.19 °W | Updated 8 minutes ago

Clear
Clear
63 °F
Feels Like 63 °F
N
5
Wind Variable Wind from NNW

Today
High -- | Low -- °F
--% Chance of Precip.
Yesterday
High -- | Low -- °F
Precip. -- in
6:36 AM 6:22 PM
First Quarter, 59% visible
Pressure 30.21 in
Visibility 10.0 miles
Clouds Clear
Dew Point 24 °F
Humidity 23%
Rainfall 0.00 in
Snow Depth 0 in , 1 in , 2 in
UV 1 out of 12
Pollen 5.00 out of 12
Ozone Good
PM2.5 Good
Flu Activity Not available.
METAR KVGT 021453Z 34004KT 10SM CLR 17/M04 A3019 RMK AO2 SLP228 T01721044 53016

More Conditions Fewer Conditions

Pressure 30.21 in
Visibility 10.0 miles
Clouds Clear
Dew Point 24 °F
Humidity 23%
Rainfall 0.00 in
Snow Depth 0 in , 1 in , 2 in
UV 1 out of 12
Pollen 5.00 out of 12
Ozone Good
PM2.5 Good
Flu Activity Not available.
METAR KVGT 021453Z 34004KT 10SM CLR 17/M04 A3019 RMK AO2 SLP228 T01721044 53016

More Conditions Fewer Conditions

10-Day Weather Forecast

Almanac

Astronomy

Oct. 02, 2014 Rise Set
Actual Time 6:36 AM PDT 6:22 PM PDT
Civil Twilight 6:10 AM PDT 6:48 PM PDT
Nautical Twilight 5:41 AM PDT 7:17 PM PDT
Astronomical Twilight 5:11 AM PDT 7:47 PM PDT
Moon 2:23 PM PDT 12:07 AM PDT
Length of Visible Light 12h 37m
Length of Day
11h 46m
Tomorrow will be 2m 15s shorter.
First Quarter, 59% of the Moon is Illuminated
Today
First Quarter
Oct 8
Full
Oct 15
Last Quarter
Oct 23
New
Oct 30
First Quarter

Today's Extremes

State Highs State Lows

Community

WunderPhotos

Upload Photos

1,758,255 photos uploaded!

WunderBlogs® & News

By Dr. Jeff Masters
Director of Meteorology, Weather Underground
By Kari Strenfel
Meteorologist, Weather Underground
By Christopher C. Burt
Weather Historian, Weather Underground
October 2, 2014
October 2, 2014
October 2, 2014

Nearby

Air Quality

  Air Quality AQ Index Pollutant
Yesterday Good
OZONE
Yesterday Good
PM10
Current Good
PM2.5
Current Good
OZONE
Thursday Good
PM10
Thursday Good
OZONE
Friday Good
PM10
Friday Good
OZONE
Saturday Good
PM10
Saturday Good
OZONE
Sunday Good
PM10
Sunday Good
OZONE
Monday Good
PM10
Monday Good
OZONE

Snow Depth

Station Depth Elevation
Ward Mountain 0 in 9200 ft
Seventysix Creek 1 in 7100 ft
Taylor Canyon 2 in 6200 ft
Jacks Peak 5 in 8420 ft
Marlette Lake 0 in 8000 ft

Earthquake Activity

City Distance Mag. Time & Date
No recent earthquake activity has been reported nearby.
Minimum magnitude displayed is 2.5.

Coastal Water Temperatures

Place Temperature
No Stations Reporting

Nearby Weather Stations